Time;durP1;ratioP1;P1;durP2;ratioP2;P2;SDS_P1;SDS_P2;PMS_P1;PMS_P2;Temp;Humidity;BMP_temperature;BMP_pressure;BME280_temperature;BME280_humidity;BME280_pressure;Samples;Min_cycle;Max_cycle;Signal;HPM_P1;HPM_P2
2023/10/11 00:01:10;;;;;;;;;;;;;;;17.80;49.18;101785.34;4959564;29;1208;-46
2023/10/11 00:03:35;;;;;;;;;;;;;;;17.22;50.39;101790.34;4949737;29;1013;-44
2023/10/11 00:06:04;;;;;;;;;;;;;;;16.85;51.29;101788.13;4951516;29;1053;-42
2023/10/11 00:08:38;;;;;;;;;;;;;;;16.73;51.40;101793.69;4950618;29;1902;-44
2023/10/11 00:11:07;;;;;;;;;;;;;;;16.67;51.44;101794.72;4954125;29;1034;-45
2023/10/11 00:13:35;;;;;;;;;;;;;;;17.11;50.93;101794.88;4952041;29;1029;-44
2023/10/11 00:16:07;;;;;;;;;;;;;;;17.55;49.83;101791.34;4946674;28;1203;-47
2023/10/11 00:18:34;;;;;;;;;;;;;;;16.95;51.14;101793.81;4950313;29;1071;-47
2023/10/11 00:21:02;;;;;;;;;;;;;;;16.77;51.51;101801.22;4946591;29;1030;-46
2023/10/11 00:23:28;;;;;;;;;;;;;;;17.88;49.17;101797.78;4959100;29;2406;-47
2023/10/11 00:25:54;;;;;;;;;;;;;;;17.21;50.63;101786.78;4959174;29;1025;-46
2023/10/11 00:28:23;;;;;;;;;;;;;;;16.95;51.21;101788.31;4959076;29;1960;-46
2023/10/11 00:30:50;;;;;;;;;;;;;;;16.80;51.40;101788.03;4955157;29;1280;-43
2023/10/11 00:33:16;;;;;;;;;;;;;;;17.99;48.59;101787.75;4957261;29;1111;-49
2023/10/11 00:35:42;;;;;;;;;;;;;;;17.21;50.25;101784.03;4957928;29;1152;-43
2023/10/11 00:38:11;;;;;;;;;;;;;;;16.94;51.11;101786.63;4958904;29;1080;-44
2023/10/11 00:40:37;;;;;;;;;;;;;;;16.74;51.25;101779.72;4958785;29;1173;-45
2023/10/11 00:43:02;;;;;;;;;;;;;;;17.13;50.97;101778.13;4955616;29;1251;-42
2023/10/11 00:45:31;;;;;;;;;;;;;;;17.58;49.40;101777.91;4958907;29;1115;-43
2023/10/11 00:47:59;;;;;;;;;;;;;;;17.01;51.00;101776.31;4956969;29;1973;-48
2023/10/11 00:50:26;;;;;;;;;;;;;;;16.81;51.47;101789.72;4947146;29;1173;-48
2023/10/11 00:52:51;;;;;;;;;;;;;;;17.08;50.88;101796.22;4958486;29;1060;-44
2023/10/11 00:55:18;;;;;;;;;;;;;;;17.49;49.74;101786.84;4956829;29;2543;-45
2023/10/11 00:57:45;;;;;;;;;;;;;;;16.97;50.94;101786.16;4958542;29;1076;-47
2023/10/11 01:00:13;;;;;;;;;;;;;;;16.74;51.63;101787.94;4958959;29;1057;-47
2023/10/11 01:02:38;;;;;;;;;;;;;;;16.63;51.59;101791.63;4958455;29;1323;-46
2023/10/11 01:05:06;;;;;;;;;;;;;;;17.88;48.77;101800.53;4958393;29;1123;-43
2023/10/11 01:07:32;;;;;;;;;;;;;;;17.15;50.61;101800.69;4947412;29;1981;-47
2023/10/11 01:09:58;;;;;;;;;;;;;;;16.85;51.17;101805.44;4956682;29;1078;-42
2023/10/11 01:12:23;;;;;;;;;;;;;;;16.65;51.54;101805.09;4946087;29;1086;-48
2023/10/11 01:14:58;;;;;;;;;;;;;;;17.26;50.46;101808.00;4957233;29;1606;-47
2023/10/11 01:17:25;;;;;;;;;;;;;;;17.32;49.94;101808.91;4958413;29;1113;-46
2023/10/11 01:19:52;;;;;;;;;;;;;;;16.85;51.15;101805.44;4957871;29;901;-46
2023/10/11 01:22:20;;;;;;;;;;;;;;;16.73;51.57;101808.28;4957814;29;1010;-43
2023/10/11 01:24:47;;;;;;;;;;;;;;;17.47;50.17;101816.53;4958591;29;2661;-49
2023/10/11 01:27:15;;;;;;;;;;;;;;;17.34;50.17;101818.56;4953112;29;1061;-45
2023/10/11 01:29:40;;;;;;;;;;;;;;;16.93;51.05;101823.47;4950054;29;1952;-47
2023/10/11 01:32:06;;;;;;;;;;;;;;;16.70;51.61;101819.75;4956155;29;1125;-44
2023/10/11 01:34:32;;;;;;;;;;;;;;;16.87;51.29;101813.41;4958067;29;1010;-47
2023/10/11 01:36:58;;;;;;;;;;;;;;;17.62;49.19;101830.50;4956634;29;1149;-45
2023/10/11 01:39:23;;;;;;;;;;;;;;;17.03;50.56;101828.28;4957777;29;990;-46
2023/10/11 01:41:49;;;;;;;;;;;;;;;16.69;51.39;101829.09;4944127;29;1006;-48
2023/10/11 01:44:15;;;;;;;;;;;;;;;16.74;51.35;101831.91;4951731;29;1161;-47
2023/10/11 01:46:40;;;;;;;;;;;;;;;17.86;48.80;101835.75;4956573;29;1518;-45
2023/10/11 01:49:07;;;;;;;;;;;;;;;17.11;50.51;101827.88;4956367;29;1918;-44
2023/10/11 01:51:38;;;;;;;;;;;;;;;16.82;51.25;101836.16;4955413;29;1129;-43
2023/10/11 01:54:06;;;;;;;;;;;;;;;16.65;51.50;101838.91;4957691;29;2301;-44
2023/10/11 01:56:32;;;;;;;;;;;;;;;17.44;49.84;101840.69;4943667;29;1166;-44
2023/10/11 01:59:01;;;;;;;;;;;;;;;17.33;49.98;101843.56;4956601;29;1311;-48
2023/10/11 02:01:30;;;;;;;;;;;;;;;16.89;51.11;101847.84;4949837;29;1200;-45
2023/10/11 02:03:58;;;;;;;;;;;;;;;16.70;51.48;101841.72;4949797;29;1190;-47
2023/10/11 02:06:24;;;;;;;;;;;;;;;17.79;48.90;101849.69;4944833;29;1110;-46
2023/10/11 02:08:50;;;;;;;;;;;;;;;17.13;50.31;101838.59;4955731;29;1910;-46
2023/10/11 02:11:16;;;;;;;;;;;;;;;16.86;50.98;101839.25;4957506;29;1025;-45
2023/10/11 02:13:42;;;;;;;;;;;;;;;16.83;51.40;101839.72;4944924;29;1066;-49
2023/10/11 02:16:11;;;;;;;;;;;;;;;17.81;48.67;101846.69;4921975;29;1114;-47
2023/10/11 02:18:37;;;;;;;;;;;;;;;17.10;50.44;101845.44;4951162;29;1103;-44
2023/10/11 02:21:06;;;;;;;;;;;;;;;16.79;51.07;101849.53;4957379;29;1486;-46
2023/10/11 02:23:39;;;;;;;;;;;;;;;16.91;51.02;101853.94;4944638;28;2448;-47
2023/10/11 02:26:09;;;;;;;;;;;;;;;17.53;49.58;101854.00;4949799;29;1116;-46
2023/10/11 02:28:38;;;;;;;;;;;;;;;16.95;50.75;101851.50;4953459;29;1961;-47
2023/10/11 02:31:05;;;;;;;;;;;;;;;16.75;51.38;101855.53;4952712;29;1053;-46
2023/10/11 02:33:32;;;;;;;;;;;;;;;16.56;51.72;101862.34;4953207;29;1097;-45
2023/10/11 02:36:08;;;;;;;;;;;;;;;17.72;49.24;101858.13;4955805;29;1033;-47
2023/10/11 02:38:38;;;;;;;;;;;;;;;17.06;50.53;101861.56;4957131;29;1033;-45
2023/10/11 02:41:04;;;;;;;;;;;;;;;16.80;51.07;101862.19;4960288;28;1021;-44
2023/10/11 02:43:40;;;;;;;;;;;;;;;16.62;51.39;101860.50;4961114;28;999;-46
2023/10/11 02:46:11;;;;;;;;;;;;;;;17.89;48.56;101857.25;4961296;29;994;-46
2023/10/11 02:48:37;;;;;;;;;;;;;;;17.14;50.49;101859.47;4940759;29;1930;-44
2023/10/11 02:51:13;;;;;;;;;;;;;;;16.84;51.17;101868.88;4955460;29;1177;-45
2023/10/11 02:53:39;;;;;;;;;;;;;;;16.66;51.44;101868.03;4966737;28;2271;-48
2023/10/11 02:56:05;;;;;;;;;;;;;;;17.70;49.11;101868.56;4947907;29;1063;-43
2023/10/11 02:58:30;;;;;;;;;;;;;;;17.25;50.22;101880.53;4959448;29;1109;-46
2023/10/11 03:00:59;;;;;;;;;;;;;;;16.84;51.25;101874.38;4945702;29;1224;-45
2023/10/11 03:03:26;;;;;;;;;;;;;;;16.63;51.31;101873.19;4949524;29;1334;-48
2023/10/11 03:05:55;;;;;;;;;;;;;;;17.21;50.32;101879.41;4959361;29;1147;-46
2023/10/11 03:08:26;;;;;;;;;;;;;;;17.42;49.42;101875.06;4956073;29;1907;-46
2023/10/11 03:10:56;;;;;;;;;;;;;;;16.91;50.75;101875.91;4955659;29;1121;-50
2023/10/11 03:13:26;;;;;;;;;;;;;;;16.71;51.30;101868.09;4951713;29;1069;-47
2023/10/11 03:15:55;;;;;;;;;;;;;;;16.67;51.50;101872.41;4956105;29;1069;-48
2023/10/11 03:18:25;;;;;;;;;;;;;;;17.87;48.78;101870.44;4952233;29;1061;-48
2023/10/11 03:20:51;;;;;;;;;;;;;;;17.10;50.48;101865.47;4950160;29;1078;-47
2023/10/11 03:23:25;;;;;;;;;;;;;;;16.83;51.05;101861.69;4949980;29;2543;-48
2023/10/11 03:25:53;;;;;;;;;;;;;;;17.58;49.61;101867.84;4949327;29;1019;-49
2023/10/11 03:28:26;;;;;;;;;;;;;;;17.43;49.49;101861.03;4945759;28;1906;-45
2023/10/11 03:30:52;;;;;;;;;;;;;;;16.99;50.54;101855.41;4950046;29;1113;-49
2023/10/11 03:33:17;;;;;;;;;;;;;;;16.77;51.01;101867.13;4954184;29;903;-48
2023/10/11 03:35:45;;;;;;;;;;;;;;;16.65;51.32;101854.53;4950164;29;1137;-46
2023/10/11 03:38:22;;;;;;;;;;;;;;;16.69;51.56;101856.53;4944744;29;1243;-45
2023/10/11 03:41:14;;;;;;;;;;;;;;;17.73;48.87;101858.97;4941286;29;1070;-47
2023/10/11 03:43:40;;;;;;;;;;;;;;;16.92;50.61;101849.25;4942852;29;978;-45
2023/10/11 03:46:07;;;;;;;;;;;;;;;16.72;51.30;101856.03;4954848;29;1057;-47
2023/10/11 03:48:43;;;;;;;;;;;;;;;16.91;50.85;101862.19;4959841;29;1902;-46
2023/10/11 03:51:10;;;;;;;;;;;;;;;17.50;49.09;101852.63;4959247;28;1049;-45
2023/10/11 03:53:39;;;;;;;;;;;;;;;16.90;50.82;101852.25;4957940;29;2226;-43
2023/10/11 03:56:05;;;;;;;;;;;;;;;16.74;51.30;101850.31;4951410;29;1086;-46
2023/10/11 04:03:51;;;;;;;;;;;;;;;17.04;50.37;101860.16;4937811;29;1380;-49
2023/10/11 04:06:19;;;;;;;;;;;;;;;16.76;51.17;101867.38;4953422;29;1042;-49
2023/10/11 04:08:55;;;;;;;;;;;;;;;16.60;51.32;101869.00;4951925;29;1946;-47
2023/10/11 04:11:37;;;;;;;;;;;;;;;17.71;48.96;101864.72;4951766;29;1093;-52
2023/10/11 04:14:03;;;;;;;;;;;;;;;17.02;50.50;101865.91;4956880;28;986;-53
2023/10/11 04:16:29;;;;;;;;;;;;;;;16.71;51.14;101867.28;4941066;29;1227;-55
2023/10/11 04:18:54;;;;;;;;;;;;;;;16.63;51.40;101863.00;4952570;29;1029;-53
2023/10/11 04:21:26;;;;;;;;;;;;;;;17.75;48.84;101863.13;4946155;29;1014;-51
2023/10/11 04:23:57;;;;;;;;;;;;;;;17.05;50.58;101864.56;4952543;29;1927;-50
2023/10/11 04:26:53;;;;;;;;;;;;;;;16.73;51.42;101874.19;4958319;29;1411;-53
2023/10/11 04:29:18;;;;;;;;;;;;;;;16.57;51.71;101873.06;4942482;29;1973;-49
2023/10/11 04:32:38;;;;;;;;;;;;;;;16.88;51.21;101887.38;4958765;29;966;-49
2023/10/11 04:34:38;;;;;;;;;;;;;;;17.33;49.93;101887.53;4957230;29;1429;-52
2023/10/11 04:37:07;;;;;;;;;;;;;;;17.55;49.98;101887.59;4944282;29;1072;-53
2023/10/11 04:39:49;;;;;;;;;;;;;;;16.68;50.78;101882.34;4949463;29;998;-52
2023/10/11 04:42:16;;;;;;;;;;;;;;;16.58;50.69;101882.16;4949959;28;1054;-52
2023/10/11 04:44:42;;;;;;;;;;;;;;;17.06;50.77;101889.06;4948738;29;1101;-51
2023/10/11 04:47:08;;;;;;;;;;;;;;;16.51;50.20;101893.28;4958886;29;1176;-52
2023/10/11 04:49:34;;;;;;;;;;;;;;;16.37;49.01;101895.50;4958664;29;1906;-46
2023/10/11 04:52:00;;;;;;;;;;;;;;;17.30;50.02;101905.38;4958626;29;1064;-52
2023/10/11 04:54:53;;;;;;;;;;;;;;;17.13;50.91;101901.81;4945426;29;2244;-51
2023/10/11 04:57:17;;;;;;;;;;;;;;;18.90;47.95;101904.63;4944766;28;2293;-48
2023/10/11 04:59:46;;;;;;;;;;;;;;;17.59;49.78;101913.50;4957716;29;1082;-49
2023/10/11 05:02:32;;;;;;;;;;;;;;;17.07;49.36;101909.97;4958955;29;1271;-50
2023/10/11 05:04:57;;;;;;;;;;;;;;;16.82;48.38;101913.06;4958204;29;1569;-48
2023/10/11 05:07:25;;;;;;;;;;;;;;;17.36;49.56;101920.03;4954938;28;1347;-47
2023/10/11 05:09:59;;;;;;;;;;;;;;;17.22;49.78;101922.28;4955767;29;1906;-46
2023/10/11 05:12:24;;;;;;;;;;;;;;;16.90;48.96;101922.84;4958798;29;1073;-49
2023/10/11 05:19:45;;;;;;;;;;;;;;;16.92;48.75;101934.44;4958753;29;1278;-46
2023/10/11 05:22:16;;;;;;;;;;;;;;;17.62;49.29;101941.34;4946225;28;1022;-50
2023/10/11 05:25:12;;;;;;;;;;;;;;;17.34;49.58;101942.28;4958537;29;1267;-47
2023/10/11 05:27:47;;;;;;;;;;;;;;;17.64;49.68;101954.81;4957948;29;1902;-48
2023/10/11 05:30:26;;;;;;;;;;;;;;;18.09;48.99;101955.75;4958018;28;1057;-46
2023/10/11 05:33:15;;;;;;;;;;;;;;;17.27;49.40;101956.19;4950397;29;1049;-46
2023/10/11 05:52:01;;;;;;;;;;;;;;;17.04;47.81;101973.66;4947152;29;1189;-50
2023/10/11 05:54:34;;;;;;;;;;;;;;;18.01;48.67;101979.06;4958227;29;1128;-47
2023/10/11 05:57:03;;;;;;;;;;;;;;;17.39;49.43;101980.88;4954311;28;1334;-45
2023/10/11 05:59:38;;;;;;;;;;;;;;;17.03;48.42;101973.91;4945322;28;1350;-57
2023/10/11 06:02:07;;;;;;;;;;;;;;;17.74;48.78;101982.50;4947793;28;1434;-57
2023/10/11 06:04:33;;;;;;;;;;;;;;;17.44;48.96;101982.84;4940278;29;962;-57
2023/10/11 06:07:01;;;;;;;;;;;;;;;17.06;48.08;101989.91;4940783;29;1353;-55
2023/10/11 06:09:27;;;;;;;;;;;;;;;17.70;48.63;101989.59;4946839;29;1914;-56
2023/10/11 06:11:54;;;;;;;;;;;;;;;17.26;49.00;102001.28;4945262;28;1335;-55
2023/10/11 06:14:20;;;;;;;;;;;;;;;17.16;47.78;102006.56;4955412;28;1180;-53
2023/10/11 06:16:57;;;;;;;;;;;;;;;17.86;48.31;102006.34;4959398;28;1165;-53
2023/10/11 06:19:27;;;;;;;;;;;;;;;17.26;48.75;102008.66;4958367;28;1101;-54
2023/10/11 06:21:59;;;;;;;;;;;;;;;17.02;47.69;102003.28;4953715;29;1167;-53
2023/10/11 06:24:32;;;;;;;;;;;;;;;17.95;47.84;102010.38;4964663;28;974;-53
2023/10/11 06:28:09;;;;;;;;;;;;;;;17.18;48.40;102018.16;4964482;28;1006;-56
2023/10/11 06:29:45;;;;;;;;;;;;;;;18.32;47.60;102020.78;4964077;29;1966;-54
2023/10/11 06:32:11;;;;;;;;;;;;;;;17.83;48.64;102017.84;4957877;29;1142;-54
2023/10/11 06:34:37;;;;;;;;;;;;;;;17.31;48.32;102019.75;4955497;29;1286;-49
2023/10/11 06:37:02;;;;;;;;;;;;;;;17.20;47.70;102018.75;4964660;29;1072;-48
2023/10/11 06:42:13;;;;;;;;;;;;;;;16.88;46.67;102022.00;4951452;29;1041;-50
2023/10/11 06:44:47;;;;;;;;;;;;;;;17.82;47.97;102029.94;4962628;28;1117;-49
2023/10/11 06:47:12;;;;;;;;;;;;;;;17.18;48.28;102017.31;4964349;29;1036;-47
2023/10/11 06:49:44;;;;;;;;;;;;;;;17.00;47.35;102026.59;4964053;28;1910;-50
2023/10/11 06:52:15;;;;;;;;;;;;;;;18.04;47.57;102019.84;4964772;29;1038;-48
2023/10/11 06:54:46;;;;;;;;;;;;;;;17.21;48.46;102031.41;4964203;29;1145;-49
2023/10/11 06:57:19;;;;;;;;;;;;;;;17.07;47.85;102024.56;4958777;28;1149;-50
2023/10/11 06:59:57;;;;;;;;;;;;;;;16.99;46.98;102023.03;4963327;28;1013;-48
2023/10/11 07:02:31;;;;;;;;;;;;;;;17.57;47.47;102031.19;4963021;28;1202;-49
2023/10/11 07:05:05;;;;;;;;;;;;;;;17.71;48.33;102026.19;4953149;28;1201;-47
2023/10/11 07:07:32;;;;;;;;;;;;;;;17.13;48.00;102031.81;4961118;29;1118;-48
2023/10/11 07:09:58;;;;;;;;;;;;;;;17.79;48.37;102029.38;4954696;29;847;-46
2023/10/11 07:12:39;;;;;;;;;;;;;;;17.56;48.57;102024.84;4963948;28;1135;-48
2023/10/11 07:15:08;;;;;;;;;;;;;;;17.19;47.97;102029.97;4964139;28;1164;-51
2023/10/11 07:17:34;;;;;;;;;;;;;;;17.08;47.14;102034.44;4958172;28;1101;-49
2023/10/11 07:20:00;;;;;;;;;;;;;;;16.92;47.00;102022.34;4962028;28;1284;-48
2023/10/11 07:22:28;;;;;;;;;;;;;;;18.40;45.99;102036.03;4957705;28;2192;-50
2023/10/11 07:24:59;;;;;;;;;;;;;;;18.88;45.67;102028.09;4963401;29;1906;-49
2023/10/11 07:27:37;;;;;;;;;;;;;;;17.81;47.79;102022.75;4949736;28;1816;-48
2023/10/11 07:30:16;;;;;;;;;;;;;;;17.49;47.19;102031.59;4947995;29;2135;-47
2023/10/11 07:32:42;;;;;;;;;;;;;;;17.24;46.78;102033.66;4949291;29;1973;-48
2023/10/11 07:35:14;;;;;;;;;;;;;;;17.21;46.38;102022.34;4956702;29;1979;-49
2023/10/11 07:37:40;;;;;;;;;;;;;;;17.03;46.13;102021.47;4957591;29;2118;-46
2023/10/11 07:40:10;;;;;;;;;;;;;;;17.80;47.02;102030.19;4960073;29;1375;-48
2023/10/11 07:42:37;;;;;;;;;;;;;;;17.18;47.65;102029.16;4960406;28;910;-44
2023/10/11 07:45:07;;;;;;;;;;;;;;;17.16;46.80;102036.81;4958829;29;1363;-49
2023/10/11 07:47:34;;;;;;;;;;;;;;;17.85;47.03;102043.19;4961086;28;1093;-45
2023/10/11 07:49:59;;;;;;;;;;;;;;;17.51;47.66;102041.25;4947752;29;1529;-47
2023/10/11 07:52:25;;;;;;;;;;;;;;;17.08;47.80;102040.81;4960850;29;1156;-43
2023/10/11 07:54:52;;;;;;;;;;;;;;;17.02;46.93;102033.53;4959688;29;1532;-49
2023/10/11 07:57:19;;;;;;;;;;;;;;;17.85;47.29;102043.19;4959006;29;1045;-47
2023/10/11 07:59:47;;;;;;;;;;;;;;;17.35;47.40;102034.69;4960399;29;1323;-48
2023/10/11 08:02:29;;;;;;;;;;;;;;;17.14;46.84;102041.72;4959826;29;1165;-46
2023/10/11 08:04:55;;;;;;;;;;;;;;;18.10;46.96;102040.88;4960113;29;1140;-48
2023/10/11 08:07:22;;;;;;;;;;;;;;;17.39;47.45;102044.09;4947536;29;1049;-47
2023/10/11 08:09:52;;;;;;;;;;;;;;;17.12;47.00;102043.06;4955224;28;1981;-49
2023/10/11 08:12:19;;;;;;;;;;;;;;;18.34;46.97;102046.16;4951759;29;1050;-46
2023/10/11 08:14:45;;;;;;;;;;;;;;;17.46;47.85;102041.19;4960126;29;1049;-47
2023/10/11 08:17:13;;;;;;;;;;;;;;;17.19;47.44;102046.47;4960392;29;1216;-45
2023/10/11 08:19:44;;;;;;;;;;;;;;;17.19;46.68;102032.72;4960042;29;1018;-47
2023/10/11 08:22:14;;;;;;;;;;;;;;;17.93;47.50;102045.53;4959612;28;1112;-47
2023/10/11 08:24:46;;;;;;;;;;;;;;;17.31;47.62;102029.94;4959855;29;1097;-46
2023/10/11 08:27:12;;;;;;;;;;;;;;;17.13;46.82;102036.47;4959574;29;1054;-46
2023/10/11 08:29:44;;;;;;;;;;;;;;;17.85;47.36;102054.19;4940680;28;1911;-46
2023/10/11 08:32:13;;;;;;;;;;;;;;;17.48;47.56;102039.03;4954140;29;1038;-45
2023/10/11 08:34:39;;;;;;;;;;;;;;;17.25;47.03;102039.97;4948164;29;902;-43
2023/10/11 08:37:07;;;;;;;;;;;;;;;18.15;46.87;102045.59;4954021;28;1212;-47
2023/10/11 08:39:36;;;;;;;;;;;;;;;17.43;47.48;102034.28;4952820;29;1267;-44
2023/10/11 08:42:06;;;;;;;;;;;;;;;17.24;46.82;102030.91;4944854;29;1145;-47
2023/10/11 08:44:32;;;;;;;;;;;;;;;17.36;47.11;102025.34;4957422;29;994;-47
2023/10/11 08:46:58;;;;;;;;;;;;;;;17.69;47.53;102040.19;4959228;28;1265;-45
2023/10/11 08:49:23;;;;;;;;;;;;;;;17.28;47.42;102045.00;4954208;29;1911;-48
2023/10/11 08:51:49;;;;;;;;;;;;;;;17.10;46.74;102032.31;4949273;29;1015;-44
2023/10/11 08:54:16;;;;;;;;;;;;;;;17.10;46.17;102044.13;4958264;28;1065;-48
2023/10/11 08:56:48;;;;;;;;;;;;;;;18.30;46.25;102039.50;4957700;29;1140;-48
2023/10/11 08:59:15;;;;;;;;;;;;;;;17.40;47.59;102034.78;4954629;29;1325;-46
2023/10/11 09:01:45;;;;;;;;;;;;;;;17.19;46.91;102028.06;4951734;29;1681;-48
2023/10/11 09:04:14;;;;;;;;;;;;;;;17.10;46.52;102035.88;4945660;29;1434;-50
2023/10/11 09:06:43;;;;;;;;;;;;;;;17.62;46.93;102028.53;4969611;28;938;-48
2023/10/11 09:09:15;;;;;;;;;;;;;;;17.43;47.20;102028.78;4959585;29;1968;-46
2023/10/11 09:11:53;;;;;;;;;;;;;;;18.78;44.12;102029.59;4946719;28;2116;-47
2023/10/11 09:14:28;;;;;;;;;;;;;;;16.18;51.13;102033.97;4958586;28;1453;-45
2023/10/11 09:16:57;;;;;;;;;;;;;;;16.58;49.66;102031.28;4958994;29;1169;-45
2023/10/11 09:19:26;;;;;;;;;;;;;;;18.79;46.82;102034.03;4958773;29;1066;-47
2023/10/11 09:21:59;;;;;;;;;;;;;;;17.62;48.28;102034.03;4949008;29;1062;-47
2023/10/11 09:24:25;;;;;;;;;;;;;;;17.43;47.70;102037.03;4958201;29;1024;-46
2023/10/11 09:27:18;;;;;;;;;;;;;;;17.26;47.06;102036.16;4958943;29;1113;-48
2023/10/11 09:29:46;;;;;;;;;;;;;;;17.10;46.76;102030.38;4954965;29;1976;-46
2023/10/11 09:32:13;;;;;;;;;;;;;;;18.13;46.90;102034.84;4951251;29;1327;-48
2023/10/11 09:34:41;;;;;;;;;;;;;;;17.36;47.66;102036.34;4949683;29;1494;-47
2023/10/11 09:37:12;;;;;;;;;;;;;;;17.26;47.08;102027.91;4951439;29;1284;-46
2023/10/11 09:39:38;;;;;;;;;;;;;;;17.03;46.58;102032.44;4958136;29;1121;-47
2023/10/11 09:42:04;;;;;;;;;;;;;;;16.99;46.65;102030.44;4957939;29;1073;-48
2023/10/11 09:44:40;;;;;;;;;;;;;;;18.05;46.96;102031.69;4956284;29;1227;-47
2023/10/11 09:47:06;;;;;;;;;;;;;;;17.30;47.50;102025.50;4957637;29;853;-48
2023/10/11 09:49:34;;;;;;;;;;;;;;;17.12;47.06;102034.81;4953663;28;1898;-48
2023/10/11 09:52:07;;;;;;;;;;;;;;;17.10;46.14;102015.81;4952276;29;1411;-46
2023/10/11 09:54:34;;;;;;;;;;;;;;;17.62;46.66;102017.53;4951511;29;1189;-49
2023/10/11 09:57:03;;;;;;;;;;;;;;;17.66;47.45;102013.19;4957206;29;879;-46
2023/10/11 09:59:36;;;;;;;;;;;;;;;17.28;47.19;102014.78;4954373;29;880;-48
2023/10/11 10:02:02;;;;;;;;;;;;;;;17.12;46.69;102012.81;4956191;29;1049;-48
2023/10/11 10:04:49;;;;;;;;;;;;;;;17.69;46.82;102012.69;4951153;29;940;-49
2023/10/11 10:07:21;;;;;;;;;;;;;;;17.50;47.28;102003.00;4951273;29;1041;-49
2023/10/11 10:09:52;;;;;;;;;;;;;;;17.20;46.93;102005.00;4957272;29;1910;-48
2023/10/11 10:12:21;;;;;;;;;;;;;;;17.09;46.33;102006.72;4948511;29;1013;-46
2023/10/11 10:14:50;;;;;;;;;;;;;;;18.32;46.29;102015.28;4956771;28;1125;-46
2023/10/11 10:17:16;;;;;;;;;;;;;;;17.39;47.52;102004.75;4955688;29;1086;-48
2023/10/11 10:19:43;;;;;;;;;;;;;;;17.25;46.81;101998.75;4956626;29;1055;-43
2023/10/11 10:22:15;;;;;;;;;;;;;;;17.77;46.72;102001.25;4953008;29;1097;-42
2023/10/11 10:24:43;;;;;;;;;;;;;;;17.71;47.38;102007.78;4952342;29;1093;-44
2023/10/11 10:27:36;;;;;;;;;;;;;;;17.37;47.04;101994.00;4951012;29;1267;-45
2023/10/11 10:30:03;;;;;;;;;;;;;;;17.69;47.12;101996.19;4947280;29;1975;-47
2023/10/11 10:32:29;;;;;;;;;;;;;;;17.80;47.40;102002.69;4947472;29;1258;-48
2023/10/11 10:35:13;;;;;;;;;;;;;;;17.32;47.18;101991.19;4954776;29;1125;-48
2023/10/11 10:37:48;;;;;;;;;;;;;;;17.24;46.47;101988.84;4957187;28;1053;-47
2023/10/11 10:40:26;;;;;;;;;;;;;;;17.09;46.21;101995.72;4945041;29;991;-46
2023/10/11 10:43:07;;;;;;;;;;;;;;;17.58;46.95;101991.59;4956545;29;1434;-49
2023/10/11 10:45:35;;;;;;;;;;;;;;;17.23;46.62;101988.00;4957031;29;1073;-49
2023/10/11 10:48:18;;;;;;;;;;;;;;;17.20;46.66;101982.19;4947476;29;1981;-50
2023/10/11 10:50:54;;;;;;;;;;;;;;;17.97;46.55;101991.66;4943280;29;1425;-48
2023/10/11 10:53:20;;;;;;;;;;;;;;;17.34;47.04;101986.25;4957007;29;960;-49
2023/10/11 10:55:46;;;;;;;;;;;;;;;17.15;46.60;101980.16;4957653;29;1060;-47
2023/10/11 10:58:20;;;;;;;;;;;;;;;17.08;45.94;101985.84;4957430;29;1037;-49
2023/10/11 11:00:52;;;;;;;;;;;;;;;16.96;45.82;101974.06;4948229;28;1058;-49
2023/10/11 11:03:32;;;;;;;;;;;;;;;18.27;45.86;101979.41;4955835;29;1342;-49
2023/10/11 11:05:59;;;;;;;;;;;;;;;17.32;47.25;101979.34;4960554;29;990;-45
2023/10/11 11:08:27;;;;;;;;;;;;;;;17.17;46.59;101979.94;4959714;29;2039;-46
2023/10/11 11:11:46;;;;;;;;;;;;;;;17.81;46.56;101984.25;4964072;28;1321;-46
2023/10/11 11:14:08;;;;;;;;;;;;;;;17.32;47.16;101982.09;4952088;29;1701;-49
2023/10/11 11:16:38;;;;;;;;;;;;;;;17.10;46.54;101991.09;4959768;29;1346;-47
2023/10/11 11:19:16;;;;;;;;;;;;;;;18.00;46.28;101987.59;4960407;29;966;-47
2023/10/11 11:21:45;;;;;;;;;;;;;;;17.66;47.02;101990.38;4949283;29;1069;-48
2023/10/11 11:24:14;;;;;;;;;;;;;;;17.25;46.96;101990.50;4958510;29;1054;-50
2023/10/11 11:26:40;;;;;;;;;;;;;;;17.04;46.68;101973.66;4956873;29;1338;-49
2023/10/11 11:29:09;;;;;;;;;;;;;;;17.02;46.07;101983.25;4960344;29;1976;-42
2023/10/11 11:31:53;;;;;;;;;;;;;;;18.20;46.17;101987.88;4960255;29;1069;-47
2023/10/11 11:34:27;;;;;;;;;;;;;;;17.42;46.88;101985.84;4960177;29;1010;-43
2023/10/11 11:37:00;;;;;;;;;;;;;;;17.45;47.04;101979.03;4952132;29;894;-45
2023/10/11 11:39:36;;;;;;;;;;;;;;;17.79;46.91;101984.50;4960062;29;1005;-49
2023/10/11 11:42:07;;;;;;;;;;;;;;;17.31;46.85;101985.94;4960468;29;993;-47
2023/10/11 11:44:33;;;;;;;;;;;;;;;17.16;46.12;101983.75;4958376;29;1086;-47
2023/10/11 11:47:05;;;;;;;;;;;;;;;16.98;46.15;101976.56;4954173;29;954;-48
2023/10/11 11:49:33;;;;;;;;;;;;;;;17.12;45.86;101972.41;4955655;29;1972;-48
2023/10/11 11:51:58;;;;;;;;;;;;;;;17.73;46.58;101975.34;4959952;29;1446;-45
2023/10/11 11:54:28;;;;;;;;;;;;;;;17.24;46.53;101978.69;4957509;29;1200;-45
2023/10/11 11:56:54;;;;;;;;;;;;;;;17.07;46.18;101962.19;4949748;29;1053;-48
2023/10/11 11:59:23;;;;;;;;;;;;;;;17.30;46.42;101976.84;4958802;29;1169;-50
2023/10/11 12:01:59;;;;;;;;;;;;;;;17.60;46.61;101976.53;4959711;29;1130;-48
2023/10/11 12:04:29;;;;;;;;;;;;;;;17.15;46.81;101973.84;4959394;29;1054;-47
2023/10/11 12:06:57;;;;;;;;;;;;;;;17.11;46.57;101973.53;4959654;29;1002;-47
2023/10/11 12:09:22;;;;;;;;;;;;;;;17.72;46.45;101979.16;4959560;29;1985;-46
2023/10/11 12:11:53;;;;;;;;;;;;;;;17.28;46.65;101968.03;4952559;29;1100;-45
2023/10/11 12:14:22;;;;;;;;;;;;;;;17.07;46.34;101975.91;4958237;29;997;-46
2023/10/11 12:16:48;;;;;;;;;;;;;;;17.04;45.57;101973.66;4959492;29;1181;-45
2023/10/11 12:19:14;;;;;;;;;;;;;;;17.58;46.32;101966.84;4959613;28;1042;-47
2023/10/11 12:21:40;;;;;;;;;;;;;;;17.23;46.37;101959.69;4959191;29;1153;-47
2023/10/11 12:24:11;;;;;;;;;;;;;;;17.07;45.85;101972.34;4956511;29;1045;-43
2023/10/11 12:26:41;;;;;;;;;;;;;;;18.42;45.37;101971.31;4959548;29;1224;-45
2023/10/11 12:29:09;;;;;;;;;;;;;;;17.44;46.73;101969.94;4959064;29;2013;-47
2023/10/11 12:31:38;;;;;;;;;;;;;;;17.17;46.68;101971.69;4959364;29;1110;-49
2023/10/11 12:34:09;;;;;;;;;;;;;;;17.21;46.64;101959.94;4959221;29;1121;-47
2023/10/11 12:36:41;;;;;;;;;;;;;;;17.76;46.59;101969.31;4957079;29;1021;-47
2023/10/11 12:39:20;;;;;;;;;;;;;;;17.23;46.93;101962.44;4947600;29;1073;-44
2023/10/11 12:41:49;;;;;;;;;;;;;;;17.14;46.20;101963.91;4959208;29;1035;-44
2023/10/11 12:44:15;;;;;;;;;;;;;;;17.92;46.29;101961.31;4949285;29;1072;-48
2023/10/11 12:46:40;;;;;;;;;;;;;;;17.40;46.79;101970.69;4955975;29;1146;-50
2023/10/11 12:49:12;;;;;;;;;;;;;;;17.19;46.36;101961.28;4953934;29;1911;-43
2023/10/11 12:51:39;;;;;;;;;;;;;;;17.05;45.91;101961.56;4954684;29;1010;-49
2023/10/11 12:54:08;;;;;;;;;;;;;;;17.73;46.48;101958.81;4950194;29;1099;-45
2023/10/11 12:56:33;;;;;;;;;;;;;;;17.23;46.71;101976.19;4958691;29;1153;-49
2023/10/11 12:58:59;;;;;;;;;;;;;;;17.08;46.17;101954.75;4958676;29;1180;-50
2023/10/11 13:01:36;;;;;;;;;;;;;;;16.96;45.89;101960.34;4946400;29;1054;-46
2023/10/11 13:04:17;;;;;;;;;;;;;;;18.21;45.48;101958.41;4958855;29;986;-48
2023/10/11 13:06:49;;;;;;;;;;;;;;;17.27;46.71;101955.38;4954242;29;1272;-46
2023/10/11 13:09:15;;;;;;;;;;;;;;;17.10;46.25;101961.66;4956386;29;1989;-49
2023/10/11 13:11:46;;;;;;;;;;;;;;;17.08;46.20;101954.75;4954336;29;1142;-48
2023/10/11 13:14:18;;;;;;;;;;;;;;;17.74;46.30;101948.66;4948972;29;1053;-48
2023/10/11 13:16:48;;;;;;;;;;;;;;;17.29;46.74;101958.69;4958584;29;1141;-48
2023/10/11 13:19:17;;;;;;;;;;;;;;;17.06;46.11;101954.19;4955344;29;1106;-49
2023/10/11 13:21:49;;;;;;;;;;;;;;;17.37;46.15;101950.03;4955528;28;1535;-49
2023/10/11 13:24:22;;;;;;;;;;;;;;;17.64;46.36;101948.50;4952818;28;1302;-50
2023/10/11 13:26:48;;;;;;;;;;;;;;;17.09;46.71;101948.19;4956862;29;994;-49
2023/10/11 13:29:16;;;;;;;;;;;;;;;17.08;46.18;101941.88;4957859;29;1969;-53
2023/10/11 13:31:43;;;;;;;;;;;;;;;17.54;46.71;101943.69;4958324;29;1374;-47